createdAt,value
2023-05-25T00:00:53.364Z,99.90
2023-05-25T00:08:23.540Z,99.90
2023-05-25T00:10:50.445Z,99.90
2023-05-25T00:13:17.431Z,99.90
2023-05-25T00:15:44.521Z,99.90
2023-05-25T00:18:11.829Z,99.90
2023-05-25T00:20:40.005Z,99.90
2023-05-25T00:23:07.025Z,99.90
2023-05-25T00:25:33.926Z,99.90
2023-05-25T00:28:04.504Z,99.90
2023-05-25T00:35:28.676Z,99.90
2023-05-25T00:37:55.993Z,99.90
2023-05-25T00:42:59.378Z,99.90
2023-05-25T00:50:43.097Z,99.90
2023-05-25T00:53:12.070Z,99.90
2023-05-25T00:55:41.583Z,99.90
2023-05-25T00:58:10.106Z,99.90
2023-05-25T01:00:41.593Z,99.90
2023-05-25T01:03:17.906Z,99.90
2023-05-25T01:05:48.203Z,99.90
2023-05-25T01:08:17.488Z,99.90
2023-05-25T01:10:48.861Z,99.90
2023-05-25T01:13:19.648Z,99.90
2023-05-25T01:15:48.035Z,99.90
2023-05-25T01:18:15.940Z,99.90
2023-05-25T01:20:54.182Z,99.90
2023-05-25T01:23:26.913Z,99.90
2023-05-25T01:25:59.435Z,99.90
2023-05-25T01:28:31.293Z,99.90
2023-05-25T01:31:00.131Z,99.90
2023-05-25T01:33:28.768Z,99.90
2023-05-25T01:35:56.280Z,99.90
2023-05-25T01:38:23.330Z,99.90
2023-05-25T01:40:50.303Z,99.90
2023-05-25T01:43:17.440Z,99.90
2023-05-25T01:45:44.837Z,99.90
2023-05-25T01:48:37.481Z,99.90
2023-05-25T01:51:17.398Z,99.90
2023-05-25T01:53:49.279Z,99.90
2023-05-25T01:56:17.271Z,99.90
2023-05-25T01:58:47.154Z,99.90
2023-05-25T02:01:16.267Z,99.90
2023-05-25T02:03:45.000Z,99.90
2023-05-25T02:06:12.340Z,99.90
2023-05-25T02:08:39.280Z,99.90
2023-05-25T02:11:06.342Z,99.90
2023-05-25T02:13:33.291Z,99.90
2023-05-25T02:16:00.453Z,99.90
2023-05-25T02:18:27.848Z,99.90
2023-05-25T02:23:24.961Z,99.90
2023-05-25T02:28:19.562Z,99.90
2023-05-25T02:30:46.509Z,99.90
2023-05-25T02:33:13.991Z,99.90
2023-05-25T02:35:42.016Z,99.90
2023-05-25T02:38:09.135Z,99.90
2023-05-25T02:40:36.205Z,99.90
2023-05-25T02:43:03.233Z,99.90
2023-05-25T02:45:30.186Z,99.90
2023-05-25T02:47:57.203Z,99.90
2023-05-25T02:50:24.217Z,99.90
2023-05-25T02:52:51.188Z,99.90
2023-05-25T02:55:18.966Z,99.90
2023-05-25T02:57:46.002Z,99.90
2023-05-25T03:00:13.492Z,99.90
2023-05-25T03:02:40.550Z,99.90
2023-05-25T03:05:08.836Z,99.90
2023-05-25T03:07:35.971Z,99.90
2023-05-25T03:10:03.107Z,99.90
2023-05-25T03:14:57.827Z,99.90
2023-05-25T03:17:24.738Z,99.90
2023-05-25T03:19:52.373Z,99.90
2023-05-25T03:22:19.342Z,99.90
2023-05-25T03:24:46.695Z,99.90
2023-05-25T03:27:13.601Z,99.90
2023-05-25T03:29:40.509Z,99.90
2023-05-25T03:32:08.005Z,99.90
2023-05-25T03:34:36.341Z,99.90
2023-05-25T03:37:03.433Z,99.90
2023-05-25T03:39:30.490Z,99.90
2023-05-25T03:41:58.230Z,99.90
2023-05-25T03:44:25.682Z,99.90
2023-05-25T03:46:52.648Z,99.90
2023-05-25T03:49:19.675Z,99.90
2023-05-25T03:54:14.223Z,99.90
2023-05-25T03:56:41.194Z,99.90
2023-05-25T03:59:08.138Z,99.90
2023-05-25T04:01:38.255Z,99.90
2023-05-25T04:04:06.232Z,99.90
2023-05-25T04:06:34.103Z,99.90
2023-05-25T04:09:01.465Z,99.90
2023-05-25T04:11:29.295Z,99.90
2023-05-25T04:13:56.444Z,99.90
2023-05-25T04:16:23.698Z,99.90
2023-05-25T04:18:50.716Z,99.90
2023-05-25T04:21:17.786Z,99.90
2023-05-25T04:23:44.781Z,99.90
2023-05-25T04:26:11.857Z,99.90
2023-05-25T04:28:40.821Z,99.90
2023-05-25T04:31:09.249Z,99.90
2023-05-25T04:33:38.912Z,99.90
2023-05-25T04:36:06.565Z,99.90
2023-05-25T04:38:33.502Z,99.90
2023-05-25T04:41:03.192Z,99.90
2023-05-25T04:43:30.329Z,99.90
2023-05-25T04:50:53.205Z,99.90
2023-05-25T04:53:20.728Z,99.90
2023-05-25T04:55:47.632Z,99.90
2023-05-25T04:58:15.231Z,99.90
2023-05-25T05:00:42.540Z,99.90
2023-05-25T05:03:10.118Z,99.90
2023-05-25T05:05:37.272Z,99.90
2023-05-25T05:08:04.438Z,99.90
2023-05-25T05:10:31.393Z,99.90
2023-05-25T05:12:58.340Z,99.90
2023-05-25T05:15:25.329Z,99.90
2023-05-25T05:17:52.349Z,99.90
2023-05-25T05:20:19.347Z,99.90
2023-05-25T05:22:46.418Z,99.90
2023-05-25T05:25:13.343Z,99.90
2023-05-25T05:27:40.758Z,99.90
2023-05-25T05:37:33.572Z,99.90
2023-05-25T05:44:55.335Z,99.90
2023-05-25T05:52:23.152Z,99.90
2023-05-25T05:59:52.640Z,99.90
2023-05-25T06:02:19.746Z,99.90
2023-05-25T06:04:46.739Z,99.90
2023-05-25T06:07:14.030Z,99.90
2023-05-25T06:09:41.240Z,99.90
2023-05-25T06:14:36.619Z,99.90
2023-05-25T06:17:03.659Z,99.90
2023-05-25T06:19:30.757Z,99.90
2023-05-25T06:21:57.800Z,99.90
2023-05-25T06:24:24.750Z,99.90
2023-05-25T06:26:51.723Z,99.90
2023-05-25T06:29:18.712Z,99.90
2023-05-25T06:31:46.040Z,99.90
2023-05-25T06:34:13.151Z,99.90
2023-05-25T06:36:41.719Z,99.90
2023-05-25T06:39:08.967Z,99.90
2023-05-25T06:41:38.770Z,99.90
2023-05-25T06:44:05.801Z,99.90
2023-05-25T06:46:33.287Z,99.90
2023-05-25T06:49:01.385Z,99.90
2023-05-25T06:51:29.009Z,99.90
2023-05-25T06:53:57.083Z,99.90
2023-05-25T06:56:24.276Z,99.90
2023-05-25T06:58:51.473Z,99.90
2023-05-25T07:01:18.572Z,99.90
2023-05-25T07:03:45.662Z,99.90
2023-05-25T07:06:13.001Z,99.90
2023-05-25T07:08:40.038Z,99.90
2023-05-25T07:11:10.713Z,99.90
2023-05-25T07:13:37.653Z,99.90
2023-05-25T07:16:05.015Z,99.90
2023-05-25T07:18:32.107Z,99.90
2023-05-25T07:20:59.512Z,99.90
2023-05-25T07:23:26.593Z,99.90
2023-05-25T07:25:53.570Z,99.90
2023-05-25T07:28:20.715Z,99.90
2023-05-25T07:30:47.753Z,99.90
2023-05-25T07:33:14.713Z,99.90
2023-05-25T07:35:42.050Z,99.90
2023-05-25T07:38:09.820Z,99.90
2023-05-25T07:40:37.117Z,99.90
2023-05-25T07:43:05.741Z,99.90
2023-05-25T07:45:34.505Z,99.90
2023-05-25T07:48:01.585Z,99.90
2023-05-25T07:50:29.437Z,99.90
2023-05-25T07:52:59.904Z,99.90
2023-05-25T07:55:27.298Z,99.90
2023-05-25T07:57:54.293Z,99.90
2023-05-25T08:00:21.833Z,99.90
2023-05-25T08:02:49.550Z,99.90
2023-05-25T08:05:16.950Z,99.90
2023-05-25T08:07:44.816Z,99.90
2023-05-25T08:10:12.111Z,99.90
2023-05-25T08:12:48.618Z,99.90
2023-05-25T08:15:16.967Z,99.90
2023-05-25T08:17:44.496Z,99.90
2023-05-25T08:20:12.273Z,99.90
2023-05-25T08:22:39.669Z,99.90
2023-05-25T08:25:10.006Z,99.90
2023-05-25T08:27:37.304Z,99.90
2023-05-25T08:30:06.275Z,99.90
2023-05-25T08:32:33.422Z,99.90
2023-05-25T08:35:01.795Z,99.90
2023-05-25T08:37:29.353Z,99.90
2023-05-25T08:39:56.344Z,99.90
2023-05-25T08:42:24.090Z,99.90
2023-05-25T08:44:51.048Z,99.90
2023-05-25T08:47:21.334Z,99.90
2023-05-25T08:49:50.234Z,99.90
2023-05-25T08:52:24.302Z,99.90
2023-05-25T08:54:54.768Z,99.90
2023-05-25T08:57:28.076Z,99.90
2023-05-25T09:00:11.952Z,99.90
2023-05-25T09:02:51.413Z,99.90
2023-05-25T09:05:19.357Z,99.90
2023-05-25T09:07:47.490Z,99.90
2023-05-25T09:10:15.271Z,99.90
2023-05-25T09:12:43.552Z,99.90
2023-05-25T09:15:13.709Z,99.90
2023-05-25T09:17:41.737Z,99.90
2023-05-25T09:20:15.774Z,99.90
2023-05-25T09:22:44.208Z,99.90
2023-05-25T09:25:12.262Z,99.90
2023-05-25T09:27:39.259Z,99.90
2023-05-25T09:30:06.966Z,99.90
2023-05-25T09:32:34.274Z,99.90
2023-05-25T09:35:14.631Z,99.90
2023-05-25T09:37:43.151Z,99.90
2023-05-25T09:40:11.169Z,99.90
2023-05-25T09:42:38.638Z,99.90
2023-05-25T09:45:07.038Z,99.90
2023-05-25T09:47:37.475Z,99.90
2023-05-25T09:50:05.173Z,99.90
2023-05-25T09:52:32.213Z,99.90
2023-05-25T09:54:59.676Z,99.90
2023-05-25T09:57:28.043Z,99.90
2023-05-25T09:59:55.049Z,99.90
2023-05-25T10:02:22.537Z,99.90
2023-05-25T10:04:49.588Z,99.90
2023-05-25T10:07:17.468Z,99.90
2023-05-25T10:09:46.743Z,99.90
2023-05-25T10:12:19.472Z,99.90
2023-05-25T10:14:47.414Z,99.90
2023-05-25T10:17:18.407Z,99.90
2023-05-25T10:19:50.010Z,99.90
2023-05-25T10:22:22.203Z,99.90
2023-05-25T10:25:00.664Z,99.90
2023-05-25T10:27:37.852Z,99.90
2023-05-25T10:30:06.276Z,99.90
2023-05-25T10:32:34.062Z,99.90
2023-05-25T10:35:02.035Z,99.90
2023-05-25T10:37:29.685Z,99.90
2023-05-25T10:39:58.382Z,99.90
2023-05-25T10:42:28.083Z,99.90
2023-05-25T10:44:56.723Z,99.90
2023-05-25T10:47:24.670Z,99.90
2023-05-25T10:49:58.157Z,99.90
2023-05-25T10:52:32.379Z,99.90
2023-05-25T10:55:05.066Z,99.90
2023-05-25T10:57:32.842Z,99.90
2023-05-25T11:00:07.093Z,99.90
2023-05-25T11:02:56.150Z,99.90
2023-05-25T11:05:26.850Z,99.90
2023-05-25T11:08:12.631Z,99.90
2023-05-25T11:10:48.751Z,99.90
2023-05-25T11:13:44.587Z,99.90
2023-05-25T11:16:36.364Z,99.90
2023-05-25T11:21:42.709Z,99.90
2023-05-25T11:24:14.883Z,99.90
2023-05-25T11:26:58.910Z,99.90
2023-05-25T11:29:30.179Z,99.90
2023-05-25T11:31:57.258Z,99.90
2023-05-25T11:34:25.855Z,99.90
2023-05-25T11:37:03.951Z,99.90
2023-05-25T11:39:34.118Z,99.90
2023-05-25T11:42:11.389Z,99.90
2023-05-25T11:44:39.211Z,99.90
2023-05-25T11:47:08.944Z,99.90
2023-05-25T11:49:40.088Z,99.90
2023-05-25T11:52:07.528Z,99.90
2023-05-25T11:54:35.970Z,99.90
2023-05-25T11:59:32.611Z,99.90
2023-05-25T12:02:04.035Z,99.90
2023-05-25T12:04:35.159Z,99.90
2023-05-25T12:07:06.620Z,99.90
2023-05-25T12:12:04.158Z,99.90
2023-05-25T12:14:31.425Z,99.90
2023-05-25T12:19:26.120Z,99.90
2023-05-25T12:24:21.006Z,99.90
2023-05-25T12:26:49.779Z,99.90
2023-05-25T12:29:17.337Z,99.90
2023-05-25T12:31:44.505Z,99.90
2023-05-25T12:34:19.568Z,99.90
2023-05-25T12:36:51.798Z,99.90
2023-05-25T12:39:31.082Z,99.90
2023-05-25T12:41:59.954Z,99.90
2023-05-25T12:44:32.623Z,99.90
2023-05-25T12:47:20.331Z,99.90
2023-05-25T12:49:51.590Z,99.90
2023-05-25T12:52:41.422Z,99.90
2023-05-25T12:55:29.113Z,99.90
2023-05-25T12:58:00.113Z,99.90
2023-05-25T13:00:32.178Z,99.90
2023-05-25T13:03:00.197Z,99.90
2023-05-25T13:05:36.722Z,99.90
2023-05-25T13:08:05.379Z,99.90
2023-05-25T13:10:33.370Z,99.90
2023-05-25T13:13:01.301Z,99.90
2023-05-25T13:15:31.449Z,99.90
2023-05-25T13:20:27.788Z,99.90
2023-05-25T13:22:58.034Z,99.90
2023-05-25T13:25:27.812Z,99.90
2023-05-25T13:27:57.201Z,99.90
2023-05-25T13:30:24.309Z,99.90
2023-05-25T13:32:52.805Z,99.90
2023-05-25T13:35:34.279Z,99.90
2023-05-25T13:38:01.569Z,99.90
2023-05-25T13:40:28.753Z,99.90
2023-05-25T13:45:24.636Z,99.90
2023-05-25T13:47:51.659Z,99.90
2023-05-25T13:50:18.793Z,99.90
2023-05-25T14:00:08.565Z,99.90
2023-05-25T14:02:36.793Z,99.90
2023-05-25T14:05:04.080Z,99.90
2023-05-25T14:07:31.364Z,99.90
2023-05-25T14:17:23.960Z,99.90
2023-05-25T14:19:51.310Z,99.90
2023-05-25T14:22:18.829Z,99.90
2023-05-25T14:37:02.912Z,99.90
2023-05-25T14:39:30.259Z,99.90
2023-05-25T14:41:57.180Z,99.90
2023-05-25T14:46:51.796Z,99.90
2023-05-25T14:49:18.796Z,99.90
2023-05-25T14:51:45.772Z,99.90
2023-05-25T14:54:13.808Z,99.90
2023-05-25T14:56:43.815Z,99.90
2023-05-25T14:59:10.956Z,99.90
2023-05-25T15:01:38.018Z,99.90
2023-05-25T15:04:05.060Z,99.90
2023-05-25T15:06:32.330Z,99.90
2023-05-25T15:08:59.466Z,99.90
2023-05-25T15:11:29.333Z,99.90
2023-05-25T15:13:58.100Z,99.90
2023-05-25T15:18:52.668Z,99.90
2023-05-25T15:21:19.609Z,99.90
2023-05-25T15:23:46.799Z,99.90
2023-05-25T15:26:14.219Z,99.90
2023-05-25T15:28:41.209Z,99.90
2023-05-25T15:31:08.149Z,99.90
2023-05-25T15:33:51.376Z,99.90
2023-05-25T15:36:23.444Z,99.90
2023-05-25T15:38:50.453Z,99.90
2023-05-25T15:41:17.782Z,99.90
2023-05-25T15:43:54.526Z,99.90
2023-05-25T15:46:21.711Z,99.90
2023-05-25T15:48:48.775Z,99.90
2023-05-25T15:51:17.702Z,99.90
2023-05-25T15:53:44.822Z,99.90
2023-05-25T15:56:11.808Z,99.90
2023-05-25T15:58:38.903Z,99.90
2023-05-25T16:01:06.193Z,99.90
2023-05-25T16:03:33.181Z,99.90
2023-05-25T16:06:00.211Z,99.60
2023-05-25T16:08:27.137Z,99.90
2023-05-25T16:10:54.045Z,99.90
2023-05-25T16:13:21.014Z,99.20
2023-05-25T16:15:47.941Z,98.30
2023-05-25T16:18:16.655Z,99.90
2023-05-25T16:20:44.187Z,99.10
2023-05-25T16:23:11.265Z,99.90
2023-05-25T16:25:38.262Z,99.90
2023-05-25T16:28:05.232Z,99.90
2023-05-25T16:30:32.221Z,99.40
2023-05-25T16:32:59.202Z,99.30
2023-05-25T16:35:26.262Z,99.30
2023-05-25T16:37:53.188Z,99.00
2023-05-25T16:40:20.126Z,99.20
2023-05-25T16:42:47.055Z,98.90
2023-05-25T16:45:14.062Z,99.60
2023-05-25T16:47:41.031Z,98.60
2023-05-25T16:50:08.704Z,99.50
2023-05-25T16:52:35.955Z,99.90
2023-05-25T16:55:02.946Z,99.90
2023-05-25T16:57:29.914Z,99.10
2023-05-25T16:59:56.823Z,99.80
2023-05-25T17:02:23.888Z,99.40
2023-05-25T17:04:51.042Z,97.90
2023-05-25T17:07:18.436Z,98.20
2023-05-25T17:09:45.360Z,97.30
2023-05-25T17:12:12.383Z,98.60
2023-05-25T17:14:39.320Z,97.90
2023-05-25T17:17:06.294Z,98.30
2023-05-25T17:19:33.431Z,98.50
2023-05-25T17:22:00.368Z,98.80
2023-05-25T17:24:27.309Z,98.10
2023-05-25T17:26:54.283Z,98.40
2023-05-25T17:29:21.254Z,98.50
2023-05-25T17:31:49.022Z,97.80
2023-05-25T17:34:16.855Z,98.70
2023-05-25T17:36:43.916Z,98.50
2023-05-25T17:39:11.099Z,98.20
2023-05-25T17:41:38.066Z,99.00
2023-05-25T17:44:04.973Z,99.10
2023-05-25T17:46:31.983Z,98.30
2023-05-25T17:48:59.057Z,99.10
2023-05-25T17:51:26.116Z,97.70
2023-05-25T17:53:53.190Z,98.00
2023-05-25T17:56:20.092Z,96.90
2023-05-25T17:58:47.932Z,97.30
2023-05-25T18:01:15.789Z,95.00
2023-05-25T18:03:43.075Z,95.20
2023-05-25T18:06:10.490Z,94.20
2023-05-25T18:08:37.513Z,94.50
2023-05-25T18:11:04.752Z,94.20
2023-05-25T18:13:31.821Z,94.40
2023-05-25T18:15:58.933Z,94.70
2023-05-25T18:18:25.935Z,95.00
2023-05-25T18:20:52.938Z,95.20
2023-05-25T18:23:19.844Z,95.50
2023-05-25T18:25:47.029Z,95.60
2023-05-25T18:28:15.294Z,96.00
2023-05-25T18:30:45.573Z,95.90
2023-05-25T18:33:12.928Z,96.00
2023-05-25T18:35:40.273Z,96.30
2023-05-25T18:38:07.447Z,96.30
2023-05-25T18:40:34.389Z,96.50
2023-05-25T18:43:01.362Z,96.80
2023-05-25T18:45:28.438Z,97.30
2023-05-25T18:47:55.479Z,97.20
2023-05-25T18:50:22.461Z,97.60
2023-05-25T18:52:51.420Z,97.80
2023-05-25T18:55:19.297Z,98.10
2023-05-25T18:57:46.971Z,98.50
2023-05-25T19:00:14.526Z,98.70
2023-05-25T19:02:41.715Z,99.10
2023-05-25T19:05:11.604Z,99.60
2023-05-25T19:07:54.735Z,99.90
2023-05-25T19:10:25.456Z,99.90
2023-05-25T19:12:52.529Z,99.90
2023-05-25T19:15:19.579Z,99.90
2023-05-25T19:17:49.265Z,99.90
2023-05-25T19:20:16.580Z,99.90
2023-05-25T19:22:43.628Z,99.90
2023-05-25T19:25:10.599Z,99.90
2023-05-25T19:27:37.502Z,99.90
2023-05-25T19:30:04.845Z,99.90
2023-05-25T19:32:31.814Z,99.90
2023-05-25T19:34:58.826Z,99.90
2023-05-25T19:37:26.677Z,99.90
2023-05-25T19:39:53.664Z,99.90
2023-05-25T19:42:20.665Z,99.90
2023-05-25T19:44:47.689Z,99.90
2023-05-25T19:47:14.948Z,99.90
2023-05-25T19:49:41.992Z,99.90
2023-05-25T19:52:09.144Z,99.90
2023-05-25T19:54:36.132Z,99.90
2023-05-25T19:57:03.176Z,99.90
2023-05-25T19:59:31.374Z,99.90
2023-05-25T20:01:58.571Z,99.90
2023-05-25T20:04:25.546Z,99.90
2023-05-25T20:06:54.044Z,99.90
2023-05-25T20:09:29.832Z,99.90
2023-05-25T20:11:58.309Z,99.90
2023-05-25T20:14:25.612Z,99.90
2023-05-25T20:16:54.375Z,99.90
2023-05-25T20:19:22.506Z,99.90
2023-05-25T20:21:49.588Z,99.90
2023-05-25T20:24:16.545Z,99.90
2023-05-25T20:26:43.537Z,99.90
2023-05-25T20:29:10.667Z,99.90
2023-05-25T20:31:37.724Z,99.90
2023-05-25T20:34:04.729Z,99.90
2023-05-25T20:36:33.020Z,99.90
2023-05-25T20:39:00.141Z,99.90
2023-05-25T20:41:27.214Z,99.90
2023-05-25T20:43:54.205Z,99.90
2023-05-25T20:46:21.376Z,99.90
2023-05-25T20:48:48.381Z,99.90
2023-05-25T20:51:15.673Z,99.90
2023-05-25T20:53:42.774Z,99.90
2023-05-25T20:56:09.658Z,99.90
2023-05-25T20:58:39.897Z,99.90
2023-05-25T21:01:06.966Z,99.90
2023-05-25T21:03:34.356Z,99.90
2023-05-25T21:06:01.584Z,99.90
2023-05-25T21:08:28.541Z,99.90
2023-05-25T21:10:55.785Z,99.90
2023-05-25T21:13:22.770Z,99.90
2023-05-25T21:15:49.783Z,99.90
2023-05-25T21:18:16.817Z,99.90
2023-05-25T21:20:44.059Z,99.90
2023-05-25T21:23:10.997Z,99.90
2023-05-25T21:25:37.944Z,99.90
2023-05-25T21:28:05.048Z,99.90
2023-05-25T21:30:31.914Z,99.90
2023-05-25T21:32:58.880Z,99.90
2023-05-25T21:35:25.980Z,99.90
2023-05-25T21:37:52.851Z,99.90
2023-05-25T21:40:19.749Z,99.90
2023-05-25T21:42:48.147Z,99.90
2023-05-25T21:45:16.156Z,99.90
2023-05-25T21:47:43.255Z,99.90
2023-05-25T21:50:10.254Z,99.90
2023-05-25T21:52:37.445Z,99.90
2023-05-25T21:55:04.739Z,99.90
2023-05-25T21:57:31.718Z,99.90
2023-05-25T21:59:58.719Z,99.90
2023-05-25T22:02:25.849Z,99.90
2023-05-25T22:04:52.826Z,99.90
2023-05-25T22:07:19.791Z,99.90
2023-05-25T22:09:46.691Z,99.90
2023-05-25T22:12:13.600Z,99.90
2023-05-25T22:14:40.610Z,99.90
2023-05-25T22:17:07.931Z,99.90
2023-05-25T22:19:34.902Z,99.90
2023-05-25T22:22:01.933Z,99.90
2023-05-25T22:24:28.986Z,99.90
2023-05-25T22:26:55.837Z,99.90
2023-05-25T22:29:22.895Z,99.90
2023-05-25T22:31:50.806Z,99.90
2023-05-25T22:34:17.842Z,99.90
2023-05-25T22:36:44.731Z,99.90
2023-05-25T22:39:11.672Z,99.90
2023-05-25T22:41:38.561Z,99.90
2023-05-25T22:44:05.494Z,99.90
2023-05-25T22:46:32.497Z,99.90
2023-05-25T22:48:59.514Z,99.90
2023-05-25T22:51:26.428Z,99.90
2023-05-25T22:53:53.369Z,99.90
2023-05-25T22:56:20.361Z,99.90
2023-05-25T22:58:47.237Z,99.90
2023-05-25T23:01:14.153Z,99.90
2023-05-25T23:03:41.262Z,99.90
2023-05-25T23:06:08.426Z,99.90
2023-05-25T23:08:35.385Z,99.90
2023-05-25T23:11:02.399Z,99.90
2023-05-25T23:13:29.527Z,99.90
2023-05-25T23:15:56.501Z,99.90
2023-05-25T23:18:23.431Z,99.90
2023-05-25T23:20:50.637Z,99.90
2023-05-25T23:23:17.700Z,99.90
2023-05-25T23:25:45.648Z,99.90
2023-05-25T23:28:12.722Z,99.90
2023-05-25T23:30:40.122Z,99.90
2023-05-25T23:33:08.532Z,99.90
2023-05-25T23:35:35.620Z,99.90
2023-05-25T23:38:02.541Z,99.90
2023-05-25T23:40:30.155Z,99.90
2023-05-25T23:42:57.174Z,99.90
2023-05-25T23:45:24.134Z,99.90
2023-05-25T23:47:51.489Z,99.90
2023-05-25T23:50:18.646Z,99.90
2023-05-25T23:52:46.486Z,99.90
2023-05-25T23:55:13.912Z,99.90
2023-05-25T23:57:41.187Z,99.90
